New Baltimore, Pennsylvania
Current Conditions -  °F | °C
As of 11:15 AM on Thursday 27 Nov 2014 (Local Time) from K2G9 Reporting Station
Light Snow Light Snow  
Wind Chill: 21°   Ceiling: 4600
Heat Index: 30°   Visibility: 10mi
Dew Point: 25°   Wind: 10mph
Humidity: 80%   Direction: 310°NW
Pressure: 29.99"   Gusts: NA
Location:  39.99°N, 78.77°W
Report Text: K2G9 271615Z AUTO 31009KT 10SM -SN SCT028 SCT038 OVC046 M01/M04 A2999 RMK AO2
Loading
Personal Weather Stations






























Interactive Weather Map New forecast layout! Learn more

10-Day Weather Forecast

Advertisements
Track Severe Weather on mobile